createdAt,value
2022-11-19T00:00:53.135Z,19.39
2022-11-19T00:02:53.189Z,19.43
2022-11-19T00:03:53.494Z,19.39
2022-11-19T00:04:53.258Z,19.43
2022-11-19T00:05:53.581Z,19.42
2022-11-19T00:06:53.306Z,19.45
2022-11-19T00:07:53.337Z,19.43
2022-11-19T00:08:53.372Z,19.42
2022-11-19T00:09:53.400Z,19.45
2022-11-19T00:10:53.428Z,19.40
2022-11-19T00:11:53.455Z,19.47
2022-11-19T00:12:53.812Z,19.35
2022-11-19T00:13:53.513Z,19.45
2022-11-19T00:14:53.539Z,19.42
2022-11-19T00:15:53.587Z,19.40
2022-11-19T00:16:53.597Z,19.45
2022-11-19T00:17:53.631Z,19.35
2022-11-19T00:18:53.674Z,19.35
2022-11-19T00:19:53.941Z,19.38
2022-11-19T00:20:53.717Z,19.42
2022-11-19T00:21:53.753Z,19.42
2022-11-19T00:22:53.823Z,19.38
2022-11-19T00:23:53.810Z,19.35
2022-11-19T00:24:53.838Z,19.38
2022-11-19T00:25:53.867Z,19.32
2022-11-19T00:26:54.190Z,19.40
2022-11-19T00:27:53.922Z,19.40
2022-11-19T00:28:53.975Z,19.32
2022-11-19T00:29:53.989Z,19.28
2022-11-19T00:30:54.008Z,19.35
2022-11-19T00:31:54.046Z,19.39
2022-11-19T00:32:54.066Z,19.35
2022-11-19T00:33:54.417Z,19.39
2022-11-19T00:34:54.129Z,19.28
2022-11-19T00:35:54.154Z,19.28
2022-11-19T00:36:54.182Z,19.34
2022-11-19T00:37:54.217Z,19.34
2022-11-19T00:38:54.284Z,19.34
2022-11-19T00:40:54.313Z,19.31
2022-11-19T00:41:54.632Z,19.27
2022-11-19T00:42:54.514Z,19.24
2022-11-19T00:43:54.391Z,19.30
2022-11-19T00:44:54.444Z,19.30
2022-11-19T00:45:54.450Z,19.30
2022-11-19T00:47:54.757Z,19.31
2022-11-19T00:48:54.535Z,19.30
2022-11-19T00:49:54.567Z,19.31
2022-11-19T00:50:54.593Z,19.28
2022-11-19T00:51:54.624Z,19.30
2022-11-19T00:52:54.650Z,19.28
2022-11-19T00:53:54.686Z,19.28
2022-11-19T00:54:54.969Z,19.30
2022-11-19T00:55:54.740Z,19.30
2022-11-19T00:56:54.768Z,19.30
2022-11-19T00:57:54.804Z,19.28
2022-11-19T00:58:54.833Z,19.27
2022-11-19T00:59:54.860Z,19.28
2022-11-19T01:00:55.311Z,19.30
2022-11-19T01:01:54.916Z,19.28
2022-11-19T01:02:55.041Z,19.25
2022-11-19T01:03:54.976Z,19.30
2022-11-19T01:05:55.031Z,19.28
2022-11-19T01:06:55.459Z,19.24
2022-11-19T01:07:55.132Z,19.30
2022-11-19T01:08:55.122Z,19.24
2022-11-19T01:09:55.251Z,19.28
2022-11-19T01:10:55.179Z,19.25
2022-11-19T01:11:55.203Z,19.28
2022-11-19T01:12:55.538Z,19.21
2022-11-19T01:13:55.368Z,19.28
2022-11-19T01:14:55.296Z,19.27
2022-11-19T01:15:55.328Z,19.30
2022-11-19T01:16:55.528Z,19.27
2022-11-19T01:17:55.385Z,19.30
2022-11-19T01:19:55.742Z,19.28
2022-11-19T01:20:55.477Z,19.24
2022-11-19T01:21:55.499Z,19.32
2022-11-19T01:22:55.529Z,19.25
2022-11-19T01:23:55.565Z,19.31
2022-11-19T01:24:55.588Z,19.24
2022-11-19T01:25:55.619Z,19.27
2022-11-19T01:26:55.947Z,19.28
2022-11-19T01:27:55.677Z,19.25
2022-11-19T01:28:55.703Z,19.31
2022-11-19T01:29:55.734Z,19.28
2022-11-19T01:30:55.763Z,19.28
2022-11-19T01:31:55.790Z,19.27
2022-11-19T01:32:55.839Z,19.25
2022-11-19T01:33:56.159Z,19.28
2022-11-19T01:34:55.886Z,19.23
2022-11-19T01:35:55.910Z,19.28
2022-11-19T01:36:55.938Z,19.28
2022-11-19T01:37:55.980Z,19.28
2022-11-19T01:38:56.093Z,19.25
2022-11-19T01:39:56.028Z,19.28
2022-11-19T01:40:56.303Z,19.27
2022-11-19T01:41:56.083Z,19.27
2022-11-19T01:42:56.115Z,19.31
2022-11-19T01:43:56.145Z,19.28
2022-11-19T01:44:56.167Z,19.25
2022-11-19T01:45:56.201Z,19.28
2022-11-19T01:46:56.234Z,19.27
2022-11-19T01:47:56.560Z,19.25
2022-11-19T01:48:56.311Z,19.28
2022-11-19T01:49:56.318Z,19.34
2022-11-19T01:50:56.343Z,19.20
2022-11-19T01:51:56.481Z,19.31
2022-11-19T01:52:56.516Z,19.27
2022-11-19T01:53:56.437Z,19.27
2022-11-19T01:54:56.764Z,19.31
2022-11-19T01:55:56.501Z,19.25
2022-11-19T01:56:56.524Z,19.27
2022-11-19T01:57:56.561Z,19.31
2022-11-19T01:58:56.577Z,19.24
2022-11-19T01:59:56.612Z,19.23
2022-11-19T02:00:56.699Z,19.28
2022-11-19T02:01:56.973Z,19.25
2022-11-19T02:02:56.696Z,19.25
2022-11-19T02:03:56.733Z,19.28
2022-11-19T02:04:56.980Z,19.23
2022-11-19T02:05:56.785Z,19.16
2022-11-19T02:06:56.857Z,19.25
2022-11-19T02:07:56.845Z,19.31
2022-11-19T02:08:57.119Z,19.30
2022-11-19T02:09:56.904Z,19.31
2022-11-19T02:10:56.932Z,19.25
2022-11-19T02:11:56.960Z,19.27
2022-11-19T02:12:56.989Z,19.17
2022-11-19T02:13:57.020Z,19.30
2022-11-19T02:14:57.045Z,19.28
2022-11-19T02:15:57.379Z,19.32
2022-11-19T02:16:57.104Z,19.28
2022-11-19T02:17:57.145Z,19.27
2022-11-19T02:18:57.185Z,19.28
2022-11-19T02:19:57.194Z,19.23
2022-11-19T02:20:57.259Z,19.31
2022-11-19T02:21:57.280Z,19.31
2022-11-19T02:22:57.530Z,19.25
2022-11-19T02:23:57.313Z,19.31
2022-11-19T02:24:57.400Z,19.28
2022-11-19T02:25:57.368Z,19.23
2022-11-19T02:26:57.394Z,19.30
2022-11-19T02:27:57.426Z,19.27
2022-11-19T02:28:57.463Z,19.24
2022-11-19T02:29:57.796Z,19.28
2022-11-19T02:30:57.516Z,19.23
2022-11-19T02:31:57.544Z,19.23
2022-11-19T02:32:57.572Z,19.25
2022-11-19T02:33:57.603Z,19.24
2022-11-19T02:34:57.633Z,19.25
2022-11-19T02:35:57.661Z,19.25
2022-11-19T02:36:58.063Z,19.27
2022-11-19T02:37:57.719Z,19.28
2022-11-19T02:38:57.750Z,19.31
2022-11-19T02:39:57.777Z,19.27
2022-11-19T02:41:57.845Z,19.31
2022-11-19T02:42:57.867Z,19.25
2022-11-19T02:43:58.202Z,19.31
2022-11-19T02:44:57.930Z,19.27
2022-11-19T02:45:57.961Z,19.28
2022-11-19T02:46:57.985Z,19.27
2022-11-19T02:47:58.012Z,19.27
2022-11-19T02:48:58.040Z,19.27
2022-11-19T02:49:58.367Z,19.28
2022-11-19T02:50:58.099Z,19.24
2022-11-19T02:51:58.129Z,19.30
2022-11-19T02:52:58.178Z,19.20
2022-11-19T02:53:58.184Z,19.28
2022-11-19T02:54:58.218Z,19.23
2022-11-19T02:55:58.495Z,19.16
2022-11-19T02:56:58.280Z,19.17
2022-11-19T02:57:58.303Z,19.17
2022-11-19T02:58:58.329Z,19.25
2022-11-19T02:59:58.360Z,19.23
2022-11-19T03:00:58.455Z,19.24
2022-11-19T03:01:58.723Z,19.25
2022-11-19T03:02:58.449Z,19.17
2022-11-19T03:03:58.479Z,19.25
2022-11-19T03:04:58.508Z,19.23
2022-11-19T03:05:58.538Z,19.23
2022-11-19T03:06:58.628Z,19.21
2022-11-19T03:08:58.942Z,19.20
2022-11-19T03:09:58.652Z,19.21
2022-11-19T03:10:58.904Z,19.12
2022-11-19T03:11:58.724Z,19.20
2022-11-19T03:12:58.746Z,19.21
2022-11-19T03:13:58.769Z,19.20
2022-11-19T03:14:58.804Z,19.24
2022-11-19T03:15:59.077Z,19.23
2022-11-19T03:16:58.863Z,19.16
2022-11-19T03:17:58.884Z,19.17
2022-11-19T03:18:58.916Z,19.17
2022-11-19T03:19:58.944Z,19.23
2022-11-19T03:20:58.977Z,19.20
2022-11-19T03:21:59.011Z,19.13
2022-11-19T03:22:59.343Z,19.23
2022-11-19T03:23:59.667Z,19.13
2022-11-19T03:24:59.117Z,19.17
2022-11-19T03:25:59.125Z,19.20
2022-11-19T03:26:59.153Z,19.16
2022-11-19T03:27:59.181Z,19.15
2022-11-19T03:28:59.214Z,19.17
2022-11-19T03:29:59.513Z,19.15
2022-11-19T03:30:59.264Z,19.16
2022-11-19T03:31:59.291Z,19.12
2022-11-19T03:32:59.332Z,19.17
2022-11-19T03:33:59.353Z,19.17
2022-11-19T03:34:59.387Z,19.10
2022-11-19T03:35:59.416Z,19.13
2022-11-19T03:36:59.689Z,19.12
2022-11-19T03:37:59.474Z,19.12
2022-11-19T03:38:59.498Z,19.13
2022-11-19T03:39:59.528Z,19.13
2022-11-19T03:40:59.680Z,19.17
2022-11-19T03:41:59.586Z,19.09
2022-11-19T03:42:59.618Z,19.10
2022-11-19T03:43:59.943Z,19.15
2022-11-19T03:44:59.674Z,19.13
2022-11-19T03:45:59.703Z,19.12
2022-11-19T03:46:59.733Z,19.12
2022-11-19T03:47:59.762Z,19.06
2022-11-19T03:48:59.791Z,19.13
2022-11-19T03:49:59.821Z,19.09
2022-11-19T03:51:00.153Z,19.15
2022-11-19T03:51:59.876Z,19.07
2022-11-19T03:53:04.034Z,19.06
2022-11-19T03:53:59.938Z,19.13
2022-11-19T03:54:59.964Z,19.05
2022-11-19T03:55:59.995Z,19.09
2022-11-19T03:57:00.104Z,19.07
2022-11-19T03:58:00.355Z,19.13
2022-11-19T03:59:00.135Z,19.15
2022-11-19T04:00:00.121Z,19.09
2022-11-19T04:01:00.145Z,19.13
2022-11-19T04:02:00.236Z,19.06
2022-11-19T04:03:00.201Z,19.12
2022-11-19T04:04:00.328Z,19.06
2022-11-19T04:05:00.611Z,19.15
2022-11-19T04:06:00.287Z,19.16
2022-11-19T04:08:00.448Z,19.09
2022-11-19T04:09:00.373Z,19.09
2022-11-19T04:10:00.405Z,19.06
2022-11-19T04:11:40.764Z,19.09
2022-11-19T04:12:40.815Z,19.06
2022-11-19T04:13:40.822Z,19.09
2022-11-19T04:14:40.853Z,19.10
2022-11-19T04:15:40.887Z,19.05
2022-11-19T04:16:40.912Z,19.06
2022-11-19T04:17:41.340Z,19.10
2022-11-19T04:18:40.975Z,19.09
2022-11-19T04:19:41.005Z,19.06
2022-11-19T04:20:41.031Z,19.09
2022-11-19T04:22:41.086Z,19.13
2022-11-19T04:23:41.118Z,19.07
2022-11-19T04:24:41.219Z,19.06
2022-11-19T04:25:41.179Z,19.09
2022-11-19T04:26:41.203Z,19.09
2022-11-19T04:27:41.231Z,19.09
2022-11-19T04:28:41.281Z,19.09
2022-11-19T04:29:41.294Z,19.07
2022-11-19T04:30:41.317Z,19.02
2022-11-19T04:31:41.349Z,19.09
2022-11-19T04:32:41.376Z,19.06
2022-11-19T04:33:41.405Z,19.07
2022-11-19T04:34:41.433Z,19.07
2022-11-19T04:35:41.714Z,19.12
2022-11-19T04:36:41.491Z,19.13
2022-11-19T04:37:41.523Z,19.12
2022-11-19T04:38:41.552Z,19.10
2022-11-19T04:39:41.582Z,19.02
2022-11-19T04:40:41.609Z,19.12
2022-11-19T04:41:41.639Z,19.07
2022-11-19T04:42:41.966Z,19.01
2022-11-19T04:43:41.696Z,19.09
2022-11-19T04:44:41.746Z,19.09
2022-11-19T04:45:41.758Z,19.07
2022-11-19T04:46:41.786Z,19.09
2022-11-19T04:47:41.813Z,19.05
2022-11-19T04:48:41.840Z,19.06
2022-11-19T04:49:41.872Z,19.06
2022-11-19T04:50:41.897Z,19.05
2022-11-19T04:51:41.933Z,19.05
2022-11-19T04:52:41.955Z,19.05
2022-11-19T04:53:41.989Z,18.97
2022-11-19T04:56:42.374Z,19.07
2022-11-19T04:57:42.121Z,19.02
2022-11-19T04:58:42.135Z,19.01
2022-11-19T04:59:42.161Z,18.97
2022-11-19T05:00:42.207Z,19.01
2022-11-19T05:01:42.346Z,19.01
2022-11-19T05:02:42.296Z,18.96
2022-11-19T05:04:42.309Z,18.97
2022-11-19T05:05:42.337Z,18.96
2022-11-19T05:06:42.378Z,19.02
2022-11-19T05:07:42.439Z,19.02
2022-11-19T05:09:42.706Z,18.99
2022-11-19T05:10:42.484Z,18.96
2022-11-19T05:11:42.511Z,18.99
2022-11-19T05:12:42.538Z,19.06
2022-11-19T05:13:42.571Z,18.99
2022-11-19T05:14:42.618Z,18.97
2022-11-19T05:15:42.646Z,19.02
2022-11-19T05:16:42.937Z,19.05
2022-11-19T05:17:42.786Z,19.02
2022-11-19T05:18:42.713Z,19.01
2022-11-19T05:19:42.745Z,18.97
2022-11-19T05:20:42.781Z,19.02
2022-11-19T05:21:42.802Z,18.97
2022-11-19T05:22:43.149Z,19.05
2022-11-19T05:23:42.921Z,18.94
2022-11-19T05:24:42.886Z,19.02
2022-11-19T05:25:42.920Z,18.94
2022-11-19T05:26:43.052Z,18.96
2022-11-19T05:27:42.974Z,19.01
2022-11-19T05:28:43.308Z,19.07
2022-11-19T05:29:43.037Z,18.91
2022-11-19T05:30:43.067Z,18.99
2022-11-19T05:31:43.093Z,19.02
2022-11-19T05:33:43.179Z,19.02
2022-11-19T05:35:43.212Z,19.06
2022-11-19T05:36:43.239Z,18.97
2022-11-19T05:37:43.267Z,19.02
2022-11-19T05:38:43.295Z,18.97
2022-11-19T05:39:43.323Z,18.96
2022-11-19T05:40:43.361Z,18.93
2022-11-19T05:41:43.380Z,18.96
2022-11-19T05:42:43.409Z,18.99
2022-11-19T05:43:43.442Z,19.01
2022-11-19T05:44:43.472Z,18.99
2022-11-19T05:45:43.512Z,18.97
2022-11-19T05:46:43.830Z,18.97
2022-11-19T05:47:48.424Z,18.94
2022-11-19T05:48:43.584Z,18.91
2022-11-19T05:50:43.673Z,18.94
2022-11-19T05:51:43.675Z,18.89
2022-11-19T05:52:43.704Z,18.90
2022-11-19T05:53:43.841Z,18.87
2022-11-19T05:54:43.763Z,18.93
2022-11-19T05:55:43.794Z,18.89
2022-11-19T05:56:43.822Z,18.93
2022-11-19T05:57:43.846Z,18.93
2022-11-19T05:58:43.880Z,18.99
2022-11-19T05:59:44.416Z,18.94
2022-11-19T06:00:43.935Z,18.99
2022-11-19T06:01:43.964Z,18.90
2022-11-19T06:02:44.018Z,18.90
2022-11-19T06:03:44.037Z,18.87
2022-11-19T06:04:44.051Z,18.97
2022-11-19T06:05:44.380Z,18.91
2022-11-19T06:06:44.136Z,18.94
2022-11-19T06:07:44.140Z,18.93
2022-11-19T06:08:44.172Z,18.90
2022-11-19T06:09:44.197Z,19.01
2022-11-19T06:10:44.227Z,18.90
2022-11-19T06:11:44.255Z,18.96
2022-11-19T06:12:46.032Z,18.94
2022-11-19T06:13:44.312Z,18.93
2022-11-19T06:14:44.345Z,18.94
2022-11-19T06:15:44.365Z,18.94
2022-11-19T06:16:44.397Z,18.87
2022-11-19T06:17:44.698Z,18.93
2022-11-19T06:18:44.461Z,18.96
2022-11-19T06:19:44.503Z,18.94
2022-11-19T06:20:44.531Z,18.93
2022-11-19T06:21:44.541Z,18.94
2022-11-19T06:22:44.593Z,18.90
2022-11-19T06:23:44.621Z,18.96
2022-11-19T06:24:44.880Z,18.93
2022-11-19T06:25:44.664Z,18.96
2022-11-19T06:26:44.690Z,18.91
2022-11-19T06:27:44.714Z,18.93
2022-11-19T06:28:44.753Z,18.94
2022-11-19T06:29:44.773Z,18.90
2022-11-19T06:30:44.808Z,18.97
2022-11-19T06:31:45.086Z,18.96
2022-11-19T06:32:44.877Z,18.86
2022-11-19T06:33:44.904Z,18.93
2022-11-19T06:35:44.970Z,18.90
2022-11-19T06:36:49.130Z,19.02
2022-11-19T06:37:45.033Z,18.96
2022-11-19T06:38:45.054Z,18.89
2022-11-19T06:39:45.069Z,18.97
2022-11-19T06:40:45.102Z,18.93
2022-11-19T06:41:45.125Z,18.89
2022-11-19T06:42:49.784Z,18.90
2022-11-19T06:43:45.184Z,18.93
2022-11-19T06:44:45.207Z,18.91
2022-11-19T06:45:45.247Z,18.89
2022-11-19T06:46:45.370Z,18.99
2022-11-19T06:47:45.299Z,18.89
2022-11-19T06:48:45.324Z,18.94
2022-11-19T06:49:45.359Z,18.91
2022-11-19T06:50:45.683Z,18.99
2022-11-19T06:51:45.416Z,18.89
2022-11-19T06:52:45.444Z,18.91
2022-11-19T06:53:45.473Z,18.91
2022-11-19T06:54:45.518Z,18.91
2022-11-19T06:55:45.534Z,18.93
2022-11-19T06:56:45.858Z,18.87
2022-11-19T06:57:45.587Z,18.96
2022-11-19T06:58:45.683Z,18.94
2022-11-19T06:59:45.644Z,18.89
2022-11-19T07:00:45.672Z,18.89
2022-11-19T07:01:45.731Z,19.01
2022-11-19T07:02:45.980Z,18.91
2022-11-19T07:03:45.763Z,18.89
2022-11-19T07:04:45.790Z,18.90
2022-11-19T07:05:45.823Z,18.89
2022-11-19T07:06:45.850Z,18.86
2022-11-19T07:07:45.980Z,19.06
2022-11-19T07:08:45.907Z,18.97
2022-11-19T07:09:45.939Z,18.93
2022-11-19T07:10:45.980Z,18.96
2022-11-19T07:11:45.994Z,18.89
2022-11-19T07:12:46.023Z,18.91
2022-11-19T07:13:46.053Z,18.93
2022-11-19T07:14:46.081Z,18.94
2022-11-19T07:15:46.115Z,18.96
2022-11-19T07:16:46.244Z,18.90
2022-11-19T07:17:46.171Z,18.91
2022-11-19T07:18:46.196Z,18.87
2022-11-19T07:19:46.225Z,18.90
2022-11-19T07:20:46.507Z,18.89
2022-11-19T07:21:46.286Z,19.06
2022-11-19T07:22:46.318Z,18.87
2022-11-19T07:23:46.348Z,18.94
2022-11-19T07:24:46.370Z,18.94
2022-11-19T07:25:46.403Z,18.99
2022-11-19T07:26:46.449Z,18.90
2022-11-19T07:27:46.572Z,18.89
2022-11-19T07:28:46.493Z,18.89
2022-11-19T07:29:46.513Z,18.94
2022-11-19T07:30:46.542Z,18.87
2022-11-19T07:31:46.573Z,18.89
2022-11-19T07:32:46.602Z,19.02
2022-11-19T07:33:46.888Z,18.89
2022-11-19T07:34:46.663Z,18.89
2022-11-19T07:35:46.691Z,18.89
2022-11-19T07:36:46.719Z,18.89
2022-11-19T07:37:46.748Z,18.89
2022-11-19T07:38:46.776Z,18.96
2022-11-19T07:39:46.804Z,18.89
2022-11-19T07:40:46.836Z,18.94
2022-11-19T07:41:46.866Z,18.96
2022-11-19T07:42:46.910Z,18.91
2022-11-19T07:43:46.925Z,18.90
2022-11-19T07:45:46.991Z,18.89
2022-11-19T07:46:47.011Z,19.05
2022-11-19T07:47:47.042Z,18.90
2022-11-19T07:48:47.076Z,18.89
2022-11-19T07:49:47.098Z,18.91
2022-11-19T07:50:47.136Z,18.86
2022-11-19T07:51:47.152Z,18.89
2022-11-19T07:53:47.214Z,18.91
2022-11-19T07:54:47.241Z,18.93
2022-11-19T07:55:47.269Z,18.93
2022-11-19T07:56:47.295Z,18.89
2022-11-19T07:57:47.330Z,18.91
2022-11-19T07:59:47.411Z,18.91
2022-11-19T08:00:47.419Z,18.89
2022-11-19T08:01:47.482Z,18.91
2022-11-19T08:02:47.470Z,19.06
2022-11-19T08:03:50.729Z,18.91
2022-11-19T08:04:47.532Z,18.93
2022-11-19T08:06:47.599Z,18.82
2022-11-19T08:07:47.622Z,19.06
2022-11-19T08:08:47.643Z,18.91
2022-11-19T08:09:47.685Z,18.93
2022-11-19T08:10:47.700Z,18.84
2022-11-19T08:11:47.800Z,18.91
2022-11-19T08:12:47.763Z,18.93
2022-11-19T08:13:47.791Z,18.91
2022-11-19T08:14:47.818Z,18.91
2022-11-19T08:15:47.872Z,18.99
2022-11-19T08:17:47.911Z,18.99
2022-11-19T08:18:47.938Z,18.93
2022-11-19T08:19:47.966Z,19.01
2022-11-19T08:20:47.994Z,18.97
2022-11-19T08:21:48.268Z,18.93
2022-11-19T08:22:48.053Z,19.05
2022-11-19T08:23:48.082Z,18.86
2022-11-19T08:24:48.111Z,18.89
2022-11-19T08:25:48.136Z,18.91
2022-11-19T08:26:48.172Z,19.02
2022-11-19T08:27:48.195Z,18.96
2022-11-19T08:28:48.474Z,18.89
2022-11-19T08:29:48.251Z,18.94
2022-11-19T08:30:48.289Z,18.87
2022-11-19T08:31:48.335Z,18.93
2022-11-19T08:32:48.344Z,18.99
2022-11-19T08:33:48.379Z,19.02
2022-11-19T08:34:48.400Z,19.05
2022-11-19T08:35:48.680Z,18.90
2022-11-19T08:36:48.455Z,19.02
2022-11-19T08:37:48.587Z,18.91
2022-11-19T08:38:48.514Z,19.01
2022-11-19T08:39:48.544Z,19.05
2022-11-19T08:40:48.570Z,18.97
2022-11-19T08:41:48.620Z,19.02
2022-11-19T08:42:48.629Z,18.93
2022-11-19T08:43:48.660Z,18.97
2022-11-19T08:44:48.687Z,18.99
2022-11-19T08:45:48.719Z,19.02
2022-11-19T08:46:48.748Z,18.97
2022-11-19T08:47:49.139Z,19.05
2022-11-19T08:48:49.109Z,19.05
2022-11-19T08:49:48.834Z,19.06
2022-11-19T08:50:48.862Z,19.01
2022-11-19T08:51:48.893Z,18.97
2022-11-19T08:52:48.920Z,19.02
2022-11-19T08:53:48.958Z,18.96
2022-11-19T08:54:48.978Z,19.01
2022-11-19T08:55:49.006Z,18.94
2022-11-19T08:56:49.034Z,18.97
2022-11-19T08:57:49.065Z,18.97
2022-11-19T08:58:49.092Z,18.94
2022-11-19T08:59:49.126Z,18.97
2022-11-19T09:00:49.198Z,19.01
2022-11-19T09:01:49.187Z,18.99
2022-11-19T09:02:49.213Z,18.99
2022-11-19T09:04:49.291Z,19.05
2022-11-19T09:05:49.303Z,18.99
2022-11-19T09:06:49.438Z,19.07
2022-11-19T09:07:49.352Z,19.02
2022-11-19T09:08:49.410Z,19.05
2022-11-19T09:09:49.417Z,19.06
2022-11-19T09:10:49.444Z,19.02
2022-11-19T09:11:49.471Z,19.05
2022-11-19T09:12:49.503Z,19.07
2022-11-19T09:13:49.778Z,19.05
2022-11-19T09:14:49.602Z,19.02
2022-11-19T09:15:49.588Z,19.05
2022-11-19T09:16:49.619Z,19.06
2022-11-19T09:17:49.642Z,19.02
2022-11-19T09:18:49.681Z,19.06
2022-11-19T09:19:50.001Z,19.07
2022-11-19T09:20:49.765Z,19.06
2022-11-19T09:21:49.762Z,19.06
2022-11-19T09:22:49.790Z,19.13
2022-11-19T09:23:49.823Z,18.99
2022-11-19T09:24:49.848Z,19.13
2022-11-19T09:25:49.876Z,19.05
2022-11-19T09:26:52.818Z,19.12
2022-11-19T09:27:49.936Z,19.12
2022-11-19T09:28:49.969Z,19.07
2022-11-19T09:29:49.993Z,19.01
2022-11-19T09:30:50.023Z,19.13
2022-11-19T09:31:50.051Z,19.07
2022-11-19T09:32:50.081Z,19.07
2022-11-19T09:33:50.106Z,19.05
2022-11-19T09:36:50.221Z,19.06
2022-11-19T09:37:50.227Z,19.09
2022-11-19T09:38:50.254Z,19.06
2022-11-19T09:39:50.586Z,19.07
2022-11-19T09:40:50.315Z,19.10
2022-11-19T09:41:50.342Z,19.09
2022-11-19T09:42:50.433Z,19.12
2022-11-19T09:43:50.400Z,19.06
2022-11-19T09:44:50.431Z,19.10
2022-11-19T09:45:50.462Z,19.12
2022-11-19T09:46:50.741Z,19.15
2022-11-19T09:47:50.514Z,19.16
2022-11-19T09:48:50.547Z,19.20
2022-11-19T09:49:50.573Z,19.23
2022-11-19T09:50:53.460Z,19.21
2022-11-19T09:51:50.629Z,19.20
2022-11-19T09:52:50.686Z,19.24
2022-11-19T09:53:50.945Z,19.27
2022-11-19T09:54:50.724Z,19.24
2022-11-19T09:55:50.744Z,19.21
2022-11-19T09:56:50.781Z,19.31
2022-11-19T09:57:50.811Z,19.32
2022-11-19T09:58:50.835Z,19.25
2022-11-19T09:59:50.950Z,19.25
2022-11-19T10:00:50.908Z,19.25
2022-11-19T10:01:50.923Z,19.25
2022-11-19T10:02:51.013Z,19.25
2022-11-19T10:04:51.013Z,19.24
2022-11-19T10:05:51.049Z,19.25
2022-11-19T10:06:51.064Z,19.25
2022-11-19T10:07:51.110Z,19.30
2022-11-19T10:08:51.146Z,19.27
2022-11-19T10:09:51.159Z,19.27
2022-11-19T10:10:51.187Z,19.28
2022-11-19T10:11:51.217Z,19.30
2022-11-19T10:12:51.243Z,19.34
2022-11-19T10:13:51.296Z,19.28
2022-11-19T10:14:51.301Z,19.28
2022-11-19T10:15:51.331Z,19.31
2022-11-19T10:16:51.361Z,19.30
2022-11-19T10:17:51.386Z,19.31
2022-11-19T10:18:51.727Z,19.32
2022-11-19T10:19:51.447Z,19.31
2022-11-19T10:20:51.482Z,19.28
2022-11-19T10:21:51.505Z,19.32
2022-11-19T10:22:56.991Z,19.34
2022-11-19T10:24:51.859Z,19.31
2022-11-19T10:25:51.619Z,19.32
2022-11-19T10:26:51.654Z,19.28
2022-11-19T10:27:51.680Z,19.24
2022-11-19T10:29:51.773Z,19.31
2022-11-19T10:30:51.771Z,19.27
2022-11-19T10:31:52.095Z,19.30
2022-11-19T10:32:51.828Z,19.31
2022-11-19T10:33:51.855Z,19.30
2022-11-19T10:34:51.881Z,19.32
2022-11-19T10:35:52.015Z,19.30
2022-11-19T10:36:51.946Z,19.32
2022-11-19T10:37:51.972Z,19.31
2022-11-19T10:38:51.997Z,19.27
2022-11-19T10:39:52.081Z,19.27
2022-11-19T10:40:52.078Z,19.31
2022-11-19T10:41:52.087Z,19.30
2022-11-19T10:42:52.222Z,19.34
2022-11-19T10:44:52.473Z,19.30
2022-11-19T10:45:52.205Z,19.30
2022-11-19T10:46:52.233Z,19.30
2022-11-19T10:47:52.260Z,19.30
2022-11-19T10:48:52.290Z,19.24
2022-11-19T10:49:52.343Z,19.27
2022-11-19T10:50:52.375Z,19.28
2022-11-19T10:51:52.676Z,19.24
2022-11-19T10:52:52.450Z,19.30
2022-11-19T10:53:52.437Z,19.28
2022-11-19T10:54:52.463Z,19.31
2022-11-19T10:55:54.677Z,19.30
2022-11-19T10:56:52.543Z,19.34
2022-11-19T10:58:52.884Z,19.27
2022-11-19T10:59:52.609Z,19.23
2022-11-19T11:00:52.680Z,19.35
2022-11-19T11:01:52.682Z,19.27
2022-11-19T11:02:52.696Z,19.27
2022-11-19T11:03:52.731Z,19.32
2022-11-19T11:04:52.753Z,19.28
2022-11-19T11:05:53.087Z,19.30
2022-11-19T11:06:52.831Z,19.25
2022-11-19T11:07:52.943Z,19.24
2022-11-19T11:08:52.871Z,19.38
2022-11-19T11:09:52.902Z,19.38
2022-11-19T11:10:52.929Z,19.32
2022-11-19T11:11:52.964Z,19.30
2022-11-19T11:12:53.326Z,19.35
2022-11-19T11:14:53.046Z,19.32
2022-11-19T11:15:53.128Z,19.27
2022-11-19T11:16:53.110Z,19.30
2022-11-19T11:17:53.132Z,19.40
2022-11-19T11:18:53.166Z,19.35
2022-11-19T11:19:53.443Z,19.34
2022-11-19T11:20:53.230Z,19.42
2022-11-19T11:21:53.255Z,19.35
2022-11-19T11:23:53.324Z,19.27
2022-11-19T11:24:53.348Z,19.39
2022-11-19T11:25:53.373Z,19.30
2022-11-19T11:26:53.409Z,19.40
2022-11-19T11:28:53.473Z,19.25
2022-11-19T11:29:53.479Z,19.39
2022-11-19T11:30:53.513Z,19.34
2022-11-19T11:31:53.539Z,19.24
2022-11-19T11:32:53.822Z,19.25
2022-11-19T11:33:53.604Z,19.25
2022-11-19T11:34:53.635Z,19.39
2022-11-19T11:35:53.662Z,19.30
2022-11-19T11:36:53.683Z,19.25
2022-11-19T11:37:53.721Z,19.38
2022-11-19T11:38:53.997Z,19.38
2022-11-19T11:39:53.776Z,19.30
2022-11-19T11:41:11.748Z,19.34
2022-11-19T11:42:05.440Z,19.30
2022-11-19T11:42:54.162Z,19.34
2022-11-19T11:43:53.888Z,19.38
2022-11-19T11:44:53.942Z,19.34
2022-11-19T11:45:53.948Z,19.42
2022-11-19T11:46:53.980Z,19.35
2022-11-19T11:47:54.006Z,19.34
2022-11-19T11:48:57.706Z,19.35
2022-11-19T11:49:54.071Z,19.40
2022-11-19T11:50:54.396Z,19.40
2022-11-19T11:51:54.120Z,19.38
2022-11-19T11:53:54.181Z,19.42
2022-11-19T11:54:54.212Z,19.46
2022-11-19T11:56:54.519Z,19.45
2022-11-19T11:57:54.296Z,19.49
2022-11-19T11:58:54.330Z,19.50
2022-11-19T11:59:54.355Z,19.45
2022-11-19T12:00:54.420Z,19.40
2022-11-19T12:01:54.454Z,19.42
2022-11-19T12:02:54.462Z,19.49
2022-11-19T12:03:55.416Z,19.40
2022-11-19T12:04:54.505Z,19.45
2022-11-19T12:05:54.533Z,19.45
2022-11-19T12:07:54.600Z,19.40
2022-11-19T12:08:54.627Z,19.42
2022-11-19T12:09:54.651Z,19.45
2022-11-19T12:10:54.679Z,19.47
2022-11-19T12:11:54.717Z,19.43
2022-11-19T12:12:54.740Z,19.45
2022-11-19T12:13:54.772Z,19.40
2022-11-19T12:14:54.796Z,19.43
2022-11-19T12:15:55.138Z,19.47
2022-11-19T12:16:54.875Z,19.43
2022-11-19T12:17:54.887Z,19.46
2022-11-19T12:18:54.912Z,19.52
2022-11-19T12:19:54.940Z,19.47
2022-11-19T12:20:54.977Z,19.43
2022-11-19T12:21:55.301Z,19.45
2022-11-19T12:22:55.030Z,19.49
2022-11-19T12:23:55.062Z,19.49
2022-11-19T12:24:55.112Z,19.46
2022-11-19T12:25:55.117Z,19.45
2022-11-19T12:26:55.144Z,19.45
2022-11-19T12:27:55.191Z,19.49
2022-11-19T12:28:55.202Z,19.42
2022-11-19T12:29:55.233Z,19.45
2022-11-19T12:30:55.263Z,19.50
2022-11-19T12:31:55.294Z,19.42
2022-11-19T12:32:55.340Z,19.47
2022-11-19T12:33:55.349Z,19.40
2022-11-19T12:34:55.384Z,19.47
2022-11-19T12:35:55.408Z,19.43
2022-11-19T12:36:55.441Z,19.39
2022-11-19T12:37:55.467Z,19.42
2022-11-19T12:38:55.507Z,19.40
2022-11-19T12:39:55.529Z,19.46
2022-11-19T12:40:55.555Z,19.47
2022-11-19T12:41:55.594Z,19.39
2022-11-19T12:42:55.619Z,19.40
2022-11-19T12:43:55.646Z,19.42
2022-11-19T12:44:55.668Z,19.35
2022-11-19T12:45:56.007Z,19.40
2022-11-19T12:46:55.835Z,19.34
2022-11-19T12:47:55.759Z,19.35
2022-11-19T12:48:55.810Z,19.39
2022-11-19T12:49:55.820Z,19.38
2022-11-19T12:50:56.634Z,19.40
2022-11-19T12:51:56.126Z,19.42
2022-11-19T12:53:55.936Z,19.34
2022-11-19T12:54:55.967Z,19.38
2022-11-19T12:55:55.991Z,19.40
2022-11-19T12:56:56.026Z,19.38
2022-11-19T12:57:56.062Z,19.34
2022-11-19T12:58:56.088Z,19.31
2022-11-19T12:59:56.109Z,19.38
2022-11-19T13:00:56.194Z,19.31
2022-11-19T13:01:56.168Z,19.31
2022-11-19T13:02:56.217Z,19.32
2022-11-19T13:03:56.483Z,19.32
2022-11-19T13:04:56.275Z,19.24
2022-11-19T13:05:56.333Z,19.27
2022-11-19T13:06:56.372Z,19.27
2022-11-19T13:07:56.346Z,19.32
2022-11-19T13:08:56.377Z,19.28
2022-11-19T13:09:56.403Z,19.28
2022-11-19T13:10:56.683Z,19.28
2022-11-19T13:11:56.463Z,19.31
2022-11-19T13:12:56.490Z,19.25
2022-11-19T13:13:56.520Z,19.23
2022-11-19T13:14:56.554Z,19.27
2022-11-19T13:15:56.581Z,19.30
2022-11-19T13:16:56.606Z,19.27
2022-11-19T13:17:56.646Z,19.20
2022-11-19T13:18:56.664Z,19.31
2022-11-19T13:19:56.699Z,19.27
2022-11-19T13:20:56.743Z,19.31
2022-11-19T13:21:56.755Z,19.23
2022-11-19T13:22:56.780Z,19.17
2022-11-19T13:23:57.111Z,19.21
2022-11-19T13:24:56.840Z,19.23
2022-11-19T13:25:56.876Z,19.23
2022-11-19T13:26:56.900Z,19.21
2022-11-19T13:27:57.031Z,19.25
2022-11-19T13:28:56.956Z,19.16
2022-11-19T13:29:56.995Z,19.21
2022-11-19T13:30:57.018Z,19.21